Time;durP1;ratioP1;P1;durP2;ratioP2;P2;SDS_P1;SDS_P2;PMS_P1;PMS_P2;Temp;Humidity;BMP_temperature;BMP_pressure;BME280_temperature;BME280_humidity;BME280_pressure;Samples;Min_cycle;Max_cycle;Signal;HPM_P1;HPM_P2
2022/10/28 00:00:00;;;;;;;6.83;6.33;;;15.40;99.90;;;;;;5038078;28;20277;-89
2022/10/28 00:02:26;;;;;;;7.05;5.97;;;15.40;99.90;;;;;;5039975;28;20246;-90
2022/10/28 00:04:51;;;;;;;8.30;7.43;;;15.40;99.90;;;;;;5030778;28;20268;-90
2022/10/28 00:07:17;;;;;;;8.88;6.95;;;15.40;99.90;;;;;;5042624;28;20464;-89
2022/10/28 00:09:43;;;;;;;8.43;7.53;;;15.30;99.90;;;;;;5042591;28;20212;-88
2022/10/28 00:12:08;;;;;;;7.73;7.00;;;15.30;99.90;;;;;;5033759;28;20197;-89
2022/10/28 00:14:34;;;;;;;9.90;6.90;;;15.30;99.90;;;;;;5027578;28;20250;-89
2022/10/28 00:16:59;;;;;;;7.47;6.80;;;15.20;99.90;;;;;;5024540;28;20189;-90
2022/10/28 00:19:25;;;;;;;7.45;6.75;;;15.30;99.90;;;;;;5027200;28;20265;-90
2022/10/28 00:21:51;;;;;;;8.38;7.55;;;15.30;99.90;;;;;;5026874;28;20193;-89
2022/10/28 00:24:16;;;;;;;7.88;7.07;;;15.30;99.90;;;;;;5020347;28;20211;-89
2022/10/28 00:26:43;;;;;;;7.40;6.70;;;15.20;99.90;;;;;;5028092;28;20319;-89
2022/10/28 00:29:17;;;;;;;8.95;7.40;;;15.20;99.90;;;;;;5028038;28;20732;-89
2022/10/28 00:31:44;;;;;;;7.28;6.50;;;15.20;99.90;;;;;;5032225;28;20250;-89
2022/10/28 00:34:15;;;;;;;10.50;7.45;;;15.20;99.90;;;;;;5032700;28;20193;-90
2022/10/28 00:36:43;;;;;;;7.30;6.60;;;15.20;99.90;;;;;;5032460;28;20216;-89
2022/10/28 00:39:13;;;;;;;8.10;7.27;;;15.20;99.90;;;;;;5029005;28;20226;-89
2022/10/28 00:41:41;;;;;;;7.40;6.70;;;15.30;99.90;;;;;;5036599;28;20188;-90
2022/10/28 00:44:38;;;;;;;7.10;6.50;;;15.30;99.90;;;;;;5029023;28;20210;-89
2022/10/28 00:47:10;;;;;;;7.63;6.60;;;15.30;99.90;;;;;;5026751;28;20203;-90
2022/10/28 00:49:35;;;;;;;6.88;6.22;;;15.30;99.90;;;;;;5028579;28;20214;-89
2022/10/28 00:52:12;;;;;;;7.97;6.68;;;15.20;99.90;;;;;;5032237;28;20187;-89
2022/10/28 00:54:39;;;;;;;10.15;6.93;;;15.30;99.90;;;;;;5029676;28;20180;-90
2022/10/28 00:57:10;;;;;;;7.75;6.93;;;15.30;99.90;;;;;;5028481;28;20183;-89
2022/10/28 00:59:40;;;;;;;7.90;6.53;;;15.40;99.90;;;;;;5032151;28;20206;-89
2022/10/28 01:02:06;;;;;;;7.03;6.43;;;15.40;99.90;;;;;;5028929;28;20269;-90
2022/10/28 01:04:31;;;;;;;9.40;6.50;;;15.40;99.90;;;;;;5031743;28;20213;-89
2022/10/28 01:07:00;;;;;;;6.77;5.80;;;15.40;99.90;;;;;;5024320;28;20294;-89
2022/10/28 01:09:26;;;;;;;7.82;6.47;;;15.40;99.90;;;;;;5031527;28;20215;-89
2022/10/28 01:12:20;;;;;;;9.43;6.53;;;15.30;99.90;;;;;;5026283;28;20195;-89
2022/10/28 01:15:07;;;;;;;9.67;5.77;;;15.30;99.90;;;;;;5030364;28;20184;-89
2022/10/28 01:18:27;;;;;;;6.73;5.83;;;15.20;99.90;;;;;;5022296;28;20693;-89
2022/10/28 01:20:58;;;;;;;7.07;5.70;;;15.20;99.90;;;;;;5007210;28;20688;-89
2022/10/28 01:23:27;;;;;;;7.70;5.60;;;15.10;99.90;;;;;;5024377;28;20278;-89
2022/10/28 01:25:59;;;;;;;8.03;5.93;;;15.00;99.90;;;;;;5031262;28;20679;-89
2022/10/28 01:28:49;;;;;;;7.53;6.00;;;15.00;99.90;;;;;;5022114;28;20252;-89
2022/10/28 01:31:23;;;;;;;6.03;5.50;;;15.10;99.90;;;;;;5019623;28;20192;-88
2022/10/28 01:33:57;;;;;;;7.03;6.40;;;15.10;99.90;;;;;;5032059;28;20203;-88
2022/10/28 01:36:25;;;;;;;9.37;6.27;;;15.20;99.90;;;;;;5036499;28;20206;-89
2022/10/28 01:38:58;;;;;;;6.90;6.20;;;15.20;99.90;;;;;;5030132;28;20333;-89
2022/10/28 01:41:37;;;;;;;7.43;6.25;;;15.20;99.90;;;;;;5032847;28;20214;-89
2022/10/28 01:44:18;;;;;;;8.40;6.53;;;15.30;99.90;;;;;;5036057;28;20710;-89
2022/10/28 01:46:55;;;;;;;6.57;5.80;;;15.20;99.90;;;;;;5029238;28;20916;-89
2022/10/28 01:49:38;;;;;;;9.67;6.50;;;15.20;99.90;;;;;;5021381;28;20668;-89
2022/10/28 01:52:08;;;;;;;6.93;6.13;;;15.20;99.90;;;;;;5025650;28;20190;-90
2022/10/28 01:54:35;;;;;;;6.57;5.97;;;15.20;99.90;;;;;;5027246;28;20196;-89
2022/10/28 01:57:04;;;;;;;7.63;6.00;;;15.20;99.90;;;;;;5024308;28;20186;-90
2022/10/28 01:59:31;;;;;;;7.32;5.85;;;15.30;99.90;;;;;;5023045;28;20204;-89
2022/10/28 02:01:57;;;;;;;7.77;6.10;;;15.30;99.90;;;;;;5027002;28;20192;-90
2022/10/28 02:04:23;;;;;;;8.88;6.22;;;15.30;99.90;;;;;;5012943;28;20191;-89
2022/10/28 02:06:54;;;;;;;8.40;6.03;;;15.30;99.90;;;;;;5035406;28;20563;-89
2022/10/28 02:09:35;;;;;;;9.35;5.90;;;15.30;99.90;;;;;;5038812;28;20202;-89
2022/10/28 02:12:12;;;;;;;7.53;5.60;;;15.10;99.90;;;;;;5031885;28;20675;-89
2022/10/28 02:14:44;;;;;;;6.73;5.63;;;15.20;99.90;;;;;;5029051;28;20607;-89
2022/10/28 02:17:25;;;;;;;8.37;5.60;;;15.00;99.90;;;;;;5039463;28;20665;-89
2022/10/28 02:19:53;;;;;;;6.87;5.67;;;14.90;99.90;;;;;;5034567;28;20197;-89
2022/10/28 02:22:27;;;;;;;6.43;5.70;;;15.00;99.90;;;;;;5030477;28;20173;-90
2022/10/28 02:25:05;;;;;;;5.53;5.03;;;15.10;99.90;;;;;;5031071;28;20269;-89
2022/10/28 02:27:55;;;;;;;7.33;5.37;;;15.10;99.90;;;;;;5025558;28;20191;-89
2022/10/28 02:30:36;;;;;;;9.10;5.73;;;15.20;99.90;;;;;;5029725;28;20212;-89
2022/10/28 02:33:05;;;;;;;6.07;5.27;;;15.30;99.90;;;;;;5032205;28;20210;-90
2022/10/28 02:35:42;;;;;;;5.30;4.80;;;15.20;99.90;;;;;;5029430;28;20207;-89
2022/10/28 02:38:17;;;;;;;9.47;5.63;;;15.30;99.90;;;;;;5025941;28;20226;-89
2022/10/28 02:40:46;;;;;;;6.85;5.40;;;15.30;99.90;;;;;;5031179;28;20544;-89
2022/10/28 02:43:14;;;;;;;7.97;5.57;;;15.30;99.90;;;;;;5028685;28;20195;-89
2022/10/28 02:45:43;;;;;;;6.70;5.57;;;15.20;99.90;;;;;;5031898;28;20665;-89
2022/10/28 02:48:18;;;;;;;9.90;5.43;;;15.40;99.90;;;;;;5028728;28;20264;-89
2022/10/28 02:50:50;;;;;;;10.03;5.67;;;15.30;99.90;;;;;;5036907;28;20194;-90
2022/10/28 02:53:20;;;;;;;7.87;5.70;;;15.30;99.90;;;;;;5034679;28;20191;-90
2022/10/28 02:55:50;;;;;;;5.57;5.07;;;15.30;99.90;;;;;;5032778;28;20226;-89
2022/10/28 02:58:16;;;;;;;7.27;4.73;;;15.20;99.90;;;;;;5031620;28;20226;-89
2022/10/28 03:00:45;;;;;;;5.88;4.95;;;15.20;99.90;;;;;;5035889;28;20185;-89
2022/10/28 03:03:12;;;;;;;6.20;4.97;;;15.20;99.90;;;;;;5033106;28;20191;-89
2022/10/28 03:05:38;;;;;;;9.20;5.65;;;15.30;99.90;;;;;;5035923;28;20192;-89
2022/10/28 03:08:04;;;;;;;6.45;5.28;;;15.20;99.90;;;;;;5034150;28;20544;-89
2022/10/28 03:10:30;;;;;;;5.77;5.03;;;15.20;99.90;;;;;;5033297;28;20383;-89
2022/10/28 03:12:56;;;;;;;6.23;5.17;;;15.20;99.90;;;;;;5034312;28;20202;-89
2022/10/28 03:15:21;;;;;;;9.73;5.53;;;15.20;99.90;;;;;;5037583;28;20743;-89
2022/10/28 03:17:47;;;;;;;6.77;5.67;;;15.20;99.90;;;;;;5041483;28;20222;-89
2022/10/28 03:20:13;;;;;;;8.53;5.67;;;15.20;99.90;;;;;;5042792;28;20197;-89
2022/10/28 03:22:41;;;;;;;7.87;6.37;;;15.20;99.90;;;;;;5037920;28;20251;-89
2022/10/28 03:25:07;;;;;;;5.83;5.30;;;15.20;99.90;;;;;;5040299;28;20240;-89
2022/10/28 03:27:32;;;;;;;7.32;5.45;;;15.20;99.90;;;;;;5049433;28;20176;-89
2022/10/28 03:29:58;;;;;;;9.67;5.90;;;15.20;99.90;;;;;;5044844;28;20380;-88
2022/10/28 03:32:23;;;;;;;8.80;5.50;;;15.10;99.90;;;;;;5040727;28;20673;-89
2022/10/28 03:34:49;;;;;;;11.63;5.57;;;15.20;99.90;;;;;;5034660;28;20277;-89
2022/10/28 03:37:15;;;;;;;8.83;5.83;;;15.20;99.90;;;;;;5029468;28;20242;-89
2022/10/28 03:39:40;;;;;;;9.17;6.17;;;15.10;99.90;;;;;;5025548;28;20249;-90
2022/10/28 03:42:06;;;;;;;8.70;5.80;;;15.10;99.90;;;;;;5031641;28;20194;-89
2022/10/28 03:44:31;;;;;;;9.27;5.80;;;15.00;99.90;;;;;;5029543;28;20246;-89
2022/10/28 03:46:57;;;;;;;5.97;5.37;;;14.90;99.90;;;;;;5027728;28;20218;-89
2022/10/28 03:49:23;;;;;;;7.25;5.43;;;14.80;99.90;;;;;;5026552;28;20345;-89
2022/10/28 03:51:48;;;;;;;8.93;5.50;;;15.00;99.90;;;;;;5031547;28;20286;-90
2022/10/28 03:54:14;;;;;;;9.83;5.60;;;15.00;99.90;;;;;;5032175;28;20284;-89
2022/10/28 03:56:40;;;;;;;5.43;4.83;;;15.10;99.90;;;;;;5033407;28;20194;-89
2022/10/28 03:59:08;;;;;;;8.07;5.77;;;15.10;99.90;;;;;;5037706;28;20646;-89
2022/10/28 04:01:34;;;;;;;7.07;5.50;;;15.10;99.90;;;;;;5028338;28;20191;-89
2022/10/28 04:03:59;;;;;;;6.03;5.07;;;15.00;99.90;;;;;;5030434;28;20186;-89
2022/10/28 04:06:25;;;;;;;7.68;4.82;;;14.90;99.90;;;;;;5037004;28;20283;-89
2022/10/28 04:08:51;;;;;;;10.43;5.50;;;14.90;99.90;;;;;;5035458;28;20219;-89
2022/10/28 04:11:16;;;;;;;7.63;5.40;;;15.00;99.90;;;;;;5030809;28;20194;-88
2022/10/28 04:13:42;;;;;;;8.67;6.00;;;15.00;99.90;;;;;;5026362;28;20196;-89
2022/10/28 04:16:08;;;;;;;9.10;5.80;;;15.00;99.90;;;;;;5033498;28;20204;-89
2022/10/28 04:18:34;;;;;;;8.77;5.20;;;14.90;99.90;;;;;;5030286;28;20730;-89
2022/10/28 04:21:00;;;;;;;6.10;4.93;;;14.70;99.90;;;;;;5028502;28;20185;-90
2022/10/28 04:23:26;;;;;;;6.63;5.00;;;14.70;99.90;;;;;;5035086;28;20843;-89
2022/10/28 04:25:53;;;;;;;7.83;5.10;;;14.60;99.90;;;;;;5036280;28;20200;-89
2022/10/28 04:28:20;;;;;;;7.23;5.17;;;14.50;99.90;;;;;;5038605;28;20240;-90
2022/10/28 04:30:46;;;;;;;5.87;5.10;;;14.60;99.90;;;;;;5037735;28;20187;-91
2022/10/28 04:33:12;;;;;;;7.70;5.63;;;14.50;99.90;;;;;;5029726;28;20189;-90
2022/10/28 04:35:41;;;;;;;8.17;7.37;;;14.50;99.90;;;;;;5023286;28;20227;-90
2022/10/28 04:38:07;;;;;;;13.73;6.27;;;14.50;99.90;;;;;;5040262;28;20278;-90
2022/10/28 04:40:33;;;;;;;13.90;10.83;;;14.50;99.90;;;;;;5035292;28;20192;-91
2022/10/28 04:42:59;;;;;;;9.27;8.47;;;14.40;99.90;;;;;;5023829;28;20182;-91
2022/10/28 04:45:24;;;;;;;9.33;7.07;;;14.50;99.90;;;;;;5029901;28;20645;-91
2022/10/28 04:47:59;;;;;;;12.93;8.27;;;14.40;99.90;;;;;;5036337;28;20226;-91
2022/10/28 04:50:25;;;;;;;9.87;8.87;;;14.30;99.90;;;;;;5033246;28;20212;-91
2022/10/28 04:52:51;;;;;;;18.73;17.47;;;14.40;99.90;;;;;;5035040;28;20216;-90
2022/10/28 04:55:17;;;;;;;7.97;7.13;;;14.40;99.90;;;;;;5031059;28;20803;-91
2022/10/28 04:57:42;;;;;;;11.83;6.40;;;14.40;99.90;;;;;;5035928;28;20233;-91
2022/10/28 05:00:09;;;;;;;9.43;7.43;;;14.40;99.90;;;;;;5031267;28;20188;-92
2022/10/28 05:02:35;;;;;;;7.10;5.73;;;14.40;99.90;;;;;;5035307;28;20234;-91
2022/10/28 05:05:03;;;;;;;7.47;5.00;;;14.40;99.90;;;;;;5029203;28;20190;-92
2022/10/28 05:07:29;;;;;;;8.53;6.10;;;14.40;99.90;;;;;;5026463;28;20181;-91
2022/10/28 05:09:54;;;;;;;9.93;6.00;;;14.30;99.90;;;;;;5030785;28;20226;-91
2022/10/28 05:12:20;;;;;;;8.63;5.67;;;14.30;99.90;;;;;;5040836;28;20216;-91
2022/10/28 05:14:46;;;;;;;8.43;5.33;;;14.20;99.90;;;;;;5035265;28;20198;-91
2022/10/28 05:17:12;;;;;;;7.90;5.00;;;14.20;99.90;;;;;;5049059;28;20189;-90
2022/10/28 05:19:37;;;;;;;6.53;5.13;;;14.20;99.90;;;;;;5045494;28;20208;-90
2022/10/28 05:22:03;;;;;;;8.53;5.60;;;14.00;99.90;;;;;;5042046;28;20187;-90
2022/10/28 05:24:29;;;;;;;8.60;5.50;;;14.00;99.90;;;;;;5045722;28;20339;-90
2022/10/28 05:26:54;;;;;;;6.97;6.10;;;13.90;99.90;;;;;;5038726;28;20193;-91
2022/10/28 05:29:20;;;;;;;11.23;9.83;;;13.90;99.90;;;;;;5014307;28;20283;-90
2022/10/28 05:31:46;;;;;;;16.80;11.63;;;13.90;99.90;;;;;;5042836;28;20185;-91
2022/10/28 05:34:12;;;;;;;11.17;9.67;;;14.10;99.90;;;;;;5044584;28;20284;-92
2022/10/28 05:36:37;;;;;;;10.57;6.97;;;14.00;99.90;;;;;;5025917;28;20196;-91
2022/10/28 05:39:04;;;;;;;7.80;6.40;;;13.90;99.90;;;;;;5024953;28;20278;-91
2022/10/28 05:41:30;;;;;;;7.73;6.80;;;13.90;99.90;;;;;;5027870;28;20170;-92
2022/10/28 05:43:55;;;;;;;8.60;7.40;;;13.90;99.90;;;;;;5043547;28;20187;-91
2022/10/28 05:46:21;;;;;;;7.27;6.53;;;14.00;99.90;;;;;;5027753;28;20688;-91
2022/10/28 05:48:47;;;;;;;9.43;6.63;;;14.00;99.90;;;;;;5030671;28;20205;-91
2022/10/28 05:51:13;;;;;;;8.83;6.13;;;14.00;99.90;;;;;;5033068;28;20185;-91
2022/10/28 05:53:40;;;;;;;8.80;7.00;;;14.10;99.90;;;;;;5042076;28;20185;-92
2022/10/28 05:56:07;;;;;;;10.63;6.50;;;14.10;99.90;;;;;;5027071;28;20213;-90
2022/10/28 05:58:33;;;;;;;6.93;5.40;;;14.10;99.90;;;;;;5027105;28;20213;-91
2022/10/28 06:00:59;;;;;;;7.47;5.97;;;14.10;99.90;;;;;;5025343;28;20268;-91
2022/10/28 06:03:25;;;;;;;7.30;5.90;;;14.00;99.90;;;;;;5043408;28;20186;-91
2022/10/28 06:05:51;;;;;;;9.17;5.83;;;14.10;99.90;;;;;;5045247;28;20271;-90
2022/10/28 06:08:16;;;;;;;7.53;5.40;;;14.10;99.90;;;;;;5046780;28;20192;-91
2022/10/28 06:10:49;;;;;;;6.17;5.00;;;14.00;99.90;;;;;;5046489;28;20185;-91
2022/10/28 06:13:15;;;;;;;5.70;4.83;;;13.90;99.90;;;;;;5055478;28;20191;-93
2022/10/28 06:15:41;;;;;;;6.97;5.23;;;14.00;99.90;;;;;;5061255;28;20181;-93
2022/10/28 06:18:07;;;;;;;7.00;5.43;;;14.10;99.90;;;;;;5060569;28;20239;-93
2022/10/28 06:20:33;;;;;;;8.90;6.10;;;14.10;99.90;;;;;;5029388;28;20200;-90
2022/10/28 06:22:58;;;;;;;6.10;5.53;;;14.10;99.90;;;;;;5016775;28;20192;-90
2022/10/28 06:25:25;;;;;;;10.60;5.17;;;14.00;99.90;;;;;;5026865;28;20191;-90
2022/10/28 06:27:55;;;;;;;11.77;5.43;;;14.00;99.90;;;;;;5024966;28;20208;-90
2022/10/28 06:30:22;;;;;;;13.97;5.43;;;14.10;99.90;;;;;;5043807;28;20457;-91
2022/10/28 06:32:48;;;;;;;7.07;5.00;;;14.00;99.90;;;;;;5035905;28;20257;-89
2022/10/28 06:35:14;;;;;;;11.40;5.50;;;13.90;99.90;;;;;;5032216;28;20186;-90
2022/10/28 06:37:39;;;;;;;12.57;5.80;;;13.90;99.90;;;;;;5025419;28;20257;-89
2022/10/28 06:40:06;;;;;;;7.33;5.10;;;14.00;99.90;;;;;;5031134;28;20181;-88
2022/10/28 06:42:31;;;;;;;7.57;5.57;;;14.00;99.90;;;;;;5042901;28;20245;-89
2022/10/28 06:44:57;;;;;;;10.43;6.10;;;13.90;99.90;;;;;;5048306;28;20184;-87
2022/10/28 06:47:23;;;;;;;6.63;5.23;;;13.90;99.90;;;;;;5036020;28;20638;-90
2022/10/28 06:49:48;;;;;;;6.47;4.97;;;13.90;99.90;;;;;;5033267;28;20209;-89
2022/10/28 06:52:14;;;;;;;6.67;4.90;;;14.00;99.90;;;;;;5031914;28;20281;-91
2022/10/28 06:54:40;;;;;;;6.63;4.43;;;14.10;99.90;;;;;;5030935;28;20249;-91
2022/10/28 06:57:05;;;;;;;7.10;5.33;;;14.10;99.90;;;;;;5035022;28;20183;-92
2022/10/28 06:59:31;;;;;;;7.13;4.80;;;14.10;99.90;;;;;;5041247;28;20257;-91
2022/10/28 07:01:57;;;;;;;11.73;4.90;;;14.10;99.90;;;;;;5022689;28;20198;-90
2022/10/28 07:04:22;;;;;;;11.33;5.60;;;14.20;99.90;;;;;;5028224;28;20181;-90
2022/10/28 07:06:48;;;;;;;7.40;5.20;;;14.10;99.90;;;;;;5039170;28;20188;-92
2022/10/28 07:09:14;;;;;;;8.67;5.23;;;14.20;99.90;;;;;;5034493;28;20299;-91
2022/10/28 07:11:42;;;;;;;12.30;5.43;;;14.20;99.90;;;;;;5034996;28;20598;-91
2022/10/28 07:14:09;;;;;;;11.37;5.77;;;14.30;99.90;;;;;;5037934;28;20202;-90
2022/10/28 07:16:35;;;;;;;8.63;5.07;;;14.40;99.90;;;;;;5027996;28;20300;-90
2022/10/28 07:19:01;;;;;;;7.07;5.10;;;14.40;99.90;;;;;;5026615;28;20230;-90
2022/10/28 07:21:28;;;;;;;7.50;4.93;;;14.30;99.90;;;;;;5024773;28;20284;-90
2022/10/28 07:23:57;;;;;;;5.43;4.87;;;14.20;99.90;;;;;;5034774;28;20216;-91
2022/10/28 07:26:23;;;;;;;6.47;4.90;;;14.30;99.90;;;;;;5057810;28;20189;-91
2022/10/28 07:28:49;;;;;;;8.67;5.50;;;14.30;99.90;;;;;;5025184;28;20213;-91
2022/10/28 07:31:15;;;;;;;9.03;5.10;;;14.40;99.90;;;;;;5022171;28;20183;-91
2022/10/28 07:33:40;;;;;;;5.60;4.93;;;14.50;99.90;;;;;;5025095;28;20194;-91
2022/10/28 07:36:07;;;;;;;8.17;5.07;;;14.50;99.90;;;;;;5023603;28;20200;-91
2022/10/28 07:38:33;;;;;;;5.80;5.20;;;14.40;99.90;;;;;;5038990;28;20224;-90
2022/10/28 07:41:05;;;;;;;9.40;5.23;;;14.40;99.90;;;;;;5024211;28;20192;-90
2022/10/28 07:43:37;;;;;;;7.03;4.93;;;14.40;99.90;;;;;;5022852;28;20170;-91
2022/10/28 07:46:03;;;;;;;5.50;5.00;;;14.30;99.90;;;;;;5038284;28;20690;-90
2022/10/28 07:48:29;;;;;;;8.07;5.00;;;14.30;99.90;;;;;;5034133;28;20263;-91
2022/10/28 07:50:55;;;;;;;8.50;4.63;;;14.30;99.90;;;;;;5039543;28;20685;-91
2022/10/28 07:53:20;;;;;;;6.23;5.10;;;14.40;99.90;;;;;;5036960;28;20203;-90
2022/10/28 07:56:01;;;;;;;7.63;5.27;;;14.50;99.90;;;;;;5021411;28;20192;-90
2022/10/28 07:58:27;;;;;;;5.00;4.60;;;14.60;99.90;;;;;;5024544;28;20213;-90
2022/10/28 08:00:53;;;;;;;7.83;5.07;;;14.60;99.90;;;;;;5042290;28;20221;-90
2022/10/28 08:03:19;;;;;;;9.83;4.93;;;14.60;99.90;;;;;;5041152;28;20184;-90
2022/10/28 08:05:45;;;;;;;5.23;4.70;;;14.60;99.90;;;;;;5042858;28;20186;-90
2022/10/28 08:08:11;;;;;;;8.27;5.10;;;14.50;99.90;;;;;;5037797;28;20216;-91
2022/10/28 08:10:37;;;;;;;9.40;5.00;;;14.40;99.90;;;;;;5032612;28;20202;-91
2022/10/28 08:13:02;;;;;;;5.30;4.80;;;14.50;99.90;;;;;;5040972;28;20189;-90
2022/10/28 08:15:28;;;;;;;8.10;5.17;;;14.60;99.90;;;;;;5043259;28;20606;-91
2022/10/28 08:17:55;;;;;;;6.47;5.30;;;14.60;99.90;;;;;;5041151;28;20227;-90
2022/10/28 08:20:22;;;;;;;9.00;5.20;;;14.70;99.90;;;;;;5048885;28;20646;-91
2022/10/28 08:22:53;;;;;;;7.97;5.53;;;14.90;99.90;;;;;;5041424;28;20229;-90
2022/10/28 08:25:19;;;;;;;11.13;5.77;;;15.10;99.90;;;;;;5060145;28;20209;-91
2022/10/28 08:27:44;;;;;;;8.80;5.20;;;15.10;99.90;;;;;;5059983;28;20683;-90
2022/10/28 08:30:11;;;;;;;8.27;5.20;;;15.10;99.90;;;;;;5060427;28;20186;-90
2022/10/28 08:32:37;;;;;;;10.03;5.70;;;15.10;99.90;;;;;;5048242;28;20220;-91
2022/10/28 08:35:03;;;;;;;10.23;5.20;;;15.30;99.90;;;;;;5041754;28;20182;-91
2022/10/28 08:37:29;;;;;;;14.03;5.37;;;15.40;99.90;;;;;;5040587;28;20193;-90
2022/10/28 08:39:57;;;;;;;10.13;5.97;;;15.40;99.90;;;;;;5049253;28;20197;-90
2022/10/28 08:42:39;;;;;;;11.25;5.80;;;15.50;99.90;;;;;;5041888;28;20171;-90
2022/10/28 08:45:20;;;;;;;7.00;5.38;;;15.60;99.90;;;;;;5022247;28;20195;-90
2022/10/28 08:48:05;;;;;;;6.22;5.20;;;15.50;99.90;;;;;;5022453;28;20180;-91
2022/10/28 08:50:38;;;;;;;8.68;5.53;;;15.60;99.90;;;;;;5024196;28;20259;-90
2022/10/28 08:53:18;;;;;;;7.45;5.47;;;15.70;99.90;;;;;;5042848;28;20283;-90
2022/10/28 08:55:47;;;;;;;8.43;5.82;;;15.70;99.90;;;;;;5061488;28;20194;-90
2022/10/28 08:58:27;;;;;;;10.73;5.82;;;15.70;99.90;;;;;;5061382;28;20289;-91
2022/10/28 09:00:55;;;;;;;9.05;5.97;;;15.80;99.90;;;;;;5061944;28;20643;-91
2022/10/28 09:03:31;;;;;;;13.07;6.30;;;15.90;99.90;;;;;;5049121;28;20181;-90
2022/10/28 09:06:05;;;;;;;8.82;6.18;;;15.90;99.90;;;;;;5041237;28;20221;-91
2022/10/28 09:08:45;;;;;;;14.13;6.45;;;16.00;99.90;;;;;;5042734;28;20192;-91
2022/10/28 09:11:35;;;;;;;7.32;5.80;;;16.20;99.90;;;;;;5043454;28;20232;-90
2022/10/28 09:14:23;;;;;;;10.80;5.13;;;16.40;99.90;;;;;;5027819;28;20199;-90
2022/10/28 09:17:10;;;;;;;7.82;5.35;;;16.40;99.90;;;;;;5037130;28;20296;-90
2022/10/28 09:19:44;;;;;;;11.25;5.72;;;16.50;99.90;;;;;;5023086;28;20266;-90
2022/10/28 09:22:18;;;;;;;8.93;6.10;;;16.70;99.90;;;;;;5035236;28;20184;-89
2022/10/28 09:24:58;;;;;;;9.27;5.38;;;16.80;99.90;;;;;;5034652;28;20184;-89
2022/10/28 09:27:45;;;;;;;9.77;6.35;;;16.80;99.90;;;;;;5038816;28;20247;-90
2022/10/28 09:30:24;;;;;;;6.60;5.07;;;16.90;99.90;;;;;;5028956;28;20212;-90
2022/10/28 09:33:17;;;;;;;11.73;5.68;;;17.00;99.90;;;;;;5023195;28;20356;-90
2022/10/28 09:35:45;;;;;;;7.85;5.65;;;17.20;99.90;;;;;;5037691;28;20189;-89
2022/10/28 09:38:25;;;;;;;11.60;6.63;;;17.30;99.90;;;;;;5030015;28;20225;-89
2022/10/28 09:40:57;;;;;;;10.27;6.22;;;17.50;99.90;;;;;;5025978;28;20547;-89
2022/10/28 09:43:35;;;;;;;9.52;5.90;;;17.40;99.90;;;;;;5030402;28;20213;-89
2022/10/28 09:46:15;;;;;;;7.85;5.80;;;17.40;99.90;;;;;;5030154;28;20530;-90
2022/10/28 09:48:45;;;;;;;8.93;5.75;;;17.20;99.90;;;;;;5032479;28;20212;-90
2022/10/28 09:51:48;;;;;;;8.55;5.57;;;17.20;99.90;;;;;;5037747;28;20220;-90
2022/10/28 09:54:14;;;;;;;11.73;6.55;;;17.40;99.90;;;;;;5030973;28;20185;-89
2022/10/28 09:56:40;;;;;;;11.15;6.30;;;17.60;99.90;;;;;;5030422;28;20224;-90
2022/10/28 09:59:10;;;;;;;8.88;5.95;;;17.70;99.90;;;;;;5033417;28;20221;-89
2022/10/28 10:01:39;;;;;;;10.43;6.30;;;18.10;99.90;;;;;;5040139;28;20173;-89
2022/10/28 10:04:23;;;;;;;14.27;6.68;;;18.50;99.90;;;;;;5047367;28;20195;-88
2022/10/28 10:06:56;;;;;;;7.57;6.78;;;18.90;99.90;;;;;;5043472;28;20260;-90
2022/10/28 10:09:27;;;;;;;11.57;5.93;;;18.90;99.00;;;;;;5039545;28;20205;-90
2022/10/28 10:12:03;;;;;;;9.38;6.05;;;18.90;98.00;;;;;;5045937;28;20206;-89
2022/10/28 10:14:37;;;;;;;10.82;5.85;;;19.00;97.60;;;;;;5034762;28;20256;-90
2022/10/28 10:17:09;;;;;;;10.13;6.35;;;19.10;92.80;;;;;;5029908;28;20193;-90
2022/10/28 10:19:56;;;;;;;10.38;5.43;;;19.30;91.50;;;;;;5036494;28;20212;-91
2022/10/28 10:22:30;;;;;;;9.50;6.00;;;19.60;90.60;;;;;;5034743;28;20211;-90
2022/10/28 10:24:56;;;;;;;8.55;6.07;;;19.70;90.20;;;;;;5029747;28;20188;-88
2022/10/28 10:27:22;;;;;;;13.65;6.72;;;19.60;90.20;;;;;;5047667;28;20185;-89
2022/10/28 10:29:50;;;;;;;14.25;6.90;;;19.40;89.70;;;;;;5039745;28;20197;-90
2022/10/28 10:32:26;;;;;;;7.43;5.50;;;19.70;88.80;;;;;;5040144;28;20173;-90
2022/10/28 10:34:56;;;;;;;8.13;6.28;;;19.50;89.10;;;;;;5032750;28;20211;-90
2022/10/28 10:37:23;;;;;;;10.05;6.28;;;19.70;89.50;;;;;;5035508;28;20185;-90
2022/10/28 10:40:02;;;;;;;7.60;6.20;;;19.70;91.00;;;;;;5037343;28;20259;-90
2022/10/28 10:42:28;;;;;;;11.10;6.28;;;20.00;89.40;;;;;;5032809;28;20184;-90
2022/10/28 10:45:14;;;;;;;10.20;6.57;;;20.00;90.10;;;;;;5032550;28;20284;-88
2022/10/28 10:47:40;;;;;;;7.30;6.20;;;20.10;90.10;;;;;;5039466;28;20253;-90
2022/10/28 10:50:26;;;;;;;9.93;6.45;;;20.50;88.50;;;;;;5039189;28;20243;-90
2022/10/28 10:52:55;;;;;;;8.70;5.70;;;20.40;89.40;;;;;;5037405;28;20196;-90
2022/10/28 10:55:31;;;;;;;8.70;5.82;;;20.60;85.00;;;;;;5037732;28;20394;-90
2022/10/28 10:57:57;;;;;;;11.00;5.75;;;20.80;84.40;;;;;;5038755;28;20628;-89
2022/10/28 11:00:30;;;;;;;9.32;5.55;;;20.80;81.10;;;;;;5039366;28;20189;-89
2022/10/28 11:02:57;;;;;;;10.10;5.78;;;21.00;78.60;;;;;;5036910;28;20253;-90
2022/10/28 11:05:23;;;;;;;13.18;5.32;;;21.50;76.90;;;;;;5051902;28;20180;-90
2022/10/28 11:07:50;;;;;;;8.00;5.47;;;21.40;72.50;;;;;;5039461;28;21003;-90
2022/10/28 11:10:28;;;;;;;8.40;5.40;;;21.60;70.70;;;;;;5039826;28;21133;-90
2022/10/28 11:12:57;;;;;;;11.98;6.60;;;21.90;70.60;;;;;;5040564;28;20223;-90
2022/10/28 11:15:28;;;;;;;7.35;5.55;;;21.90;72.60;;;;;;5038710;28;20252;-89
2022/10/28 11:18:02;;;;;;;8.90;5.07;;;21.80;72.60;;;;;;5039562;28;20241;-89
2022/10/28 11:20:42;;;;;;;10.10;5.53;;;21.80;71.70;;;;;;5037284;28;20209;-90
2022/10/28 11:23:56;;;;;;;10.32;5.53;;;21.80;72.20;;;;;;5037778;28;20185;-90
2022/10/28 11:26:24;;;;;;;10.13;5.93;;;21.20;76.10;;;;;;5039132;28;20191;-89
2022/10/28 11:29:10;;;;;;;9.57;6.05;;;20.90;80.20;;;;;;5053047;28;20212;-89
2022/10/28 11:32:02;;;;;;;7.25;5.60;;;20.90;79.30;;;;;;5044634;28;20189;-90
2022/10/28 11:34:34;;;;;;;8.15;5.55;;;20.80;78.60;;;;;;5039306;28;20193;-90
2022/10/28 11:37:37;;;;;;;10.30;6.18;;;20.80;80.90;;;;;;5037663;28;20181;-90
2022/10/28 11:40:17;;;;;;;10.85;6.28;;;21.00;81.30;;;;;;5038346;28;20235;-89
2022/10/28 11:43:13;;;;;;;10.15;6.18;;;21.20;81.50;;;;;;5036605;28;20181;-90
2022/10/28 11:45:57;;;;;;;9.45;6.07;;;21.30;81.70;;;;;;5031782;28;20200;-90
2022/10/28 11:49:02;;;;;;;8.57;5.20;;;21.60;78.20;;;;;;5035014;28;20212;-90
2022/10/28 11:52:02;;;;;;;7.43;5.95;;;22.20;78.40;;;;;;5034353;28;20185;-89
2022/10/28 11:54:49;;;;;;;7.55;6.15;;;23.00;70.70;;;;;;5036747;28;20243;-90
2022/10/28 11:57:22;;;;;;;10.82;6.63;;;23.50;69.90;;;;;;5038531;28;20195;-90
2022/10/28 12:00:24;;;;;;;7.63;6.13;;;23.90;67.50;;;;;;5040112;28;20228;-89
2022/10/28 12:03:08;;;;;;;7.25;6.10;;;24.10;68.20;;;;;;5015671;28;20818;-90
2022/10/28 12:05:57;;;;;;;8.25;6.18;;;23.80;67.90;;;;;;5036606;28;20272;-89
2022/10/28 12:08:50;;;;;;;10.02;6.30;;;23.60;69.10;;;;;;5039641;28;20216;-89
2022/10/28 12:11:46;;;;;;;10.85;6.43;;;23.30;72.00;;;;;;5037549;28;20240;-90
2022/10/28 12:14:27;;;;;;;10.63;6.75;;;23.10;76.00;;;;;;5036464;28;20374;-89
2022/10/28 12:17:02;;;;;;;12.68;6.82;;;23.60;71.10;;;;;;5035065;28;20188;-89
2022/10/28 12:19:37;;;;;;;14.30;6.38;;;23.50;72.10;;;;;;5037122;28;20218;-89
2022/10/28 12:22:09;;;;;;;9.02;6.35;;;23.60;68.80;;;;;;5034391;28;20176;-90
2022/10/28 12:24:37;;;;;;;8.52;6.40;;;23.70;68.70;;;;;;5035134;28;20280;-89
2022/10/28 12:27:15;;;;;;;10.10;6.32;;;24.20;65.10;;;;;;5037470;28;20177;-90
2022/10/28 12:29:46;;;;;;;9.30;5.95;;;24.70;62.40;;;;;;5031944;28;20216;-89
2022/10/28 12:32:19;;;;;;;9.48;6.13;;;24.70;62.50;;;;;;5033865;28;20300;-90
2022/10/28 12:34:58;;;;;;;9.10;6.15;;;24.60;61.50;;;;;;5029854;28;20211;-90
2022/10/28 12:37:55;;;;;;;9.77;6.35;;;25.10;58.90;;;;;;5033290;28;20223;-89
2022/10/28 12:40:48;;;;;;;7.15;6.20;;;24.90;59.60;;;;;;5032569;28;20212;-89
2022/10/28 12:43:28;;;;;;;9.10;6.07;;;24.90;64.90;;;;;;5035706;28;20666;-89
2022/10/28 12:45:55;;;;;;;8.57;6.30;;;24.80;65.50;;;;;;5037707;28;20193;-89
2022/10/28 12:48:23;;;;;;;9.63;6.22;;;25.20;62.80;;;;;;5038005;28;20240;-89
2022/10/28 12:50:53;;;;;;;7.05;5.60;;;25.00;62.90;;;;;;5035474;28;20197;-89
2022/10/28 12:53:47;;;;;;;10.05;6.30;;;25.60;60.20;;;;;;5043924;28;20181;-88
2022/10/28 12:56:23;;;;;;;11.10;6.00;;;25.80;58.30;;;;;;5030309;28;20274;-89
2022/10/28 12:58:49;;;;;;;8.30;5.75;;;25.90;58.10;;;;;;5037017;28;20879;-89
2022/10/28 13:01:18;;;;;;;6.90;6.05;;;26.40;57.70;;;;;;5034256;28;20215;-90
2022/10/28 13:03:44;;;;;;;8.43;6.22;;;26.20;59.10;;;;;;5036040;28;20201;-89
2022/10/28 13:06:46;;;;;;;11.13;6.07;;;25.90;59.90;;;;;;5037223;28;20192;-89